sensor_id;sensor_type;location;lat;lon;timestamp;pressure;altitude;pressure_sealevel;temperature;humidity
75063;BME280;63981;51.052;13.754;2024-01-25T00:00:30;100793.91;;;9.81;57.46
75063;BME280;63981;51.052;13.754;2024-01-25T00:01:31;100773.38;;;9.67;57.50
75063;BME280;63981;51.052;13.754;2024-01-25T00:02:33;100782.72;;;9.79;57.62
75063;BME280;63981;51.052;13.754;2024-01-25T00:03:34;100779.25;;;9.79;57.76
75063;BME280;63981;51.052;13.754;2024-01-25T00:04:35;100754.44;;;9.63;57.69
75063;BME280;63981;51.052;13.754;2024-01-25T00:05:36;100796.25;;;9.84;57.50
75063;BME280;63981;51.052;13.754;2024-01-25T00:06:37;100773.75;;;9.72;57.63
75063;BME280;63981;51.052;13.754;2024-01-25T00:07:48;100639.56;;;8.84;57.63
75063;BME280;63981;51.052;13.754;2024-01-25T00:08:49;100797.97;;;9.75;57.72
75063;BME280;63981;51.052;13.754;2024-01-25T00:09:50;100742.25;;;9.45;57.66
75063;BME280;63981;51.052;13.754;2024-01-25T00:10:51;100751.88;;;9.54;57.72
75063;BME280;63981;51.052;13.754;2024-01-25T00:11:52;100757.97;;;9.54;57.62
75063;BME280;63981;51.052;13.754;2024-01-25T00:12:53;100790.41;;;9.72;57.74
75063;BME280;63981;51.052;13.754;2024-01-25T00:13:55;100787.59;;;9.74;57.56
75063;BME280;63981;51.052;13.754;2024-01-25T00:14:56;100790.22;;;9.74;57.38
75063;BME280;63981;51.052;13.754;2024-01-25T00:15:57;100784.00;;;9.75;57.33
75063;BME280;63981;51.052;13.754;2024-01-25T00:16:58;100795.50;;;9.74;57.50
75063;BME280;63981;51.052;13.754;2024-01-25T00:17:59;100781.50;;;9.56;57.54
75063;BME280;63981;51.052;13.754;2024-01-25T00:19:01;100804.97;;;9.67;57.84
75063;BME280;63981;51.052;13.754;2024-01-25T00:20:04;100791.03;;;9.57;57.78
75063;BME280;63981;51.052;13.754;2024-01-25T00:21:05;100801.13;;;9.61;57.97
75063;BME280;63981;51.052;13.754;2024-01-25T00:22:06;100767.34;;;9.39;57.93
75063;BME280;63981;51.052;13.754;2024-01-25T00:23:07;100756.38;;;9.26;58.35
75063;BME280;63981;51.052;13.754;2024-01-25T00:24:08;100811.97;;;9.58;57.83
75063;BME280;63981;51.052;13.754;2024-01-25T00:25:09;100812.25;;;9.55;58.01
75063;BME280;63981;51.052;13.754;2024-01-25T00:26:11;100808.88;;;9.63;57.80
75063;BME280;63981;51.052;13.754;2024-01-25T00:27:12;100783.59;;;9.52;57.98
75063;BME280;63981;51.052;13.754;2024-01-25T00:28:13;100773.28;;;9.41;58.00
75063;BME280;63981;51.052;13.754;2024-01-25T00:29:14;100807.75;;;9.65;57.78
75063;BME280;63981;51.052;13.754;2024-01-25T00:30:16;100815.50;;;9.67;57.80
75063;BME280;63981;51.052;13.754;2024-01-25T00:31:17;100813.25;;;9.72;57.81
75063;BME280;63981;51.052;13.754;2024-01-25T00:32:18;100813.72;;;9.67;57.95
75063;BME280;63981;51.052;13.754;2024-01-25T00:33:19;100815.59;;;9.75;57.72
75063;BME280;63981;51.052;13.754;2024-01-25T00:34:20;100806.41;;;9.79;57.78
75063;BME280;63981;51.052;13.754;2024-01-25T00:35:22;100766.16;;;9.51;57.94
75063;BME280;63981;51.052;13.754;2024-01-25T00:36:25;100806.19;;;9.72;57.58
75063;BME280;63981;51.052;13.754;2024-01-25T00:37:26;100820.94;;;9.83;57.89
75063;BME280;63981;51.052;13.754;2024-01-25T00:38:28;100824.69;;;9.81;57.41
75063;BME280;63981;51.052;13.754;2024-01-25T00:39:29;100816.28;;;9.77;57.63
75063;BME280;63981;51.052;13.754;2024-01-25T00:40:30;100827.47;;;9.79;57.33
75063;BME280;63981;51.052;13.754;2024-01-25T00:41:32;100821.38;;;9.79;57.56
75063;BME280;63981;51.052;13.754;2024-01-25T00:42:45;100829.88;;;9.72;57.55
75063;BME280;63981;51.052;13.754;2024-01-25T00:43:49;100833.72;;;9.78;57.63
75063;BME280;63981;51.052;13.754;2024-01-25T00:44:51;100815.94;;;9.62;57.59
75063;BME280;63981;51.052;13.754;2024-01-25T00:45:52;100817.84;;;9.70;57.23
75063;BME280;63981;51.052;13.754;2024-01-25T00:46:54;100804.75;;;9.60;57.57
75063;BME280;63981;51.052;13.754;2024-01-25T00:47:55;100784.03;;;9.48;57.55
75063;BME280;63981;51.052;13.754;2024-01-25T00:48:57;100832.81;;;9.69;57.36
75063;BME280;63981;51.052;13.754;2024-01-25T00:49:58;100828.38;;;9.70;57.42
75063;BME280;63981;51.052;13.754;2024-01-25T00:50:59;100809.47;;;9.57;57.38
75063;BME280;63981;51.052;13.754;2024-01-25T00:52:02;100811.28;;;9.56;57.33
75063;BME280;63981;51.052;13.754;2024-01-25T00:53:04;100836.56;;;9.67;57.23
75063;BME280;63981;51.052;13.754;2024-01-25T00:54:05;100799.31;;;9.44;57.48
75063;BME280;63981;51.052;13.754;2024-01-25T00:55:07;100812.31;;;9.46;57.55
75063;BME280;63981;51.052;13.754;2024-01-25T00:56:09;100806.38;;;9.44;57.37
75063;BME280;63981;51.052;13.754;2024-01-25T00:57:11;100841.00;;;9.66;57.43
75063;BME280;63981;51.052;13.754;2024-01-25T00:58:12;100837.22;;;9.69;57.53
75063;BME280;63981;51.052;13.754;2024-01-25T00:59:14;100846.25;;;9.66;57.36
75063;BME280;63981;51.052;13.754;2024-01-25T01:00:15;100849.44;;;9.70;57.53
75063;BME280;63981;51.052;13.754;2024-01-25T01:01:18;100812.31;;;9.46;57.50
75063;BME280;63981;51.052;13.754;2024-01-25T01:02:22;100848.81;;;9.76;57.37
75063;BME280;63981;51.052;13.754;2024-01-25T01:03:23;100817.00;;;9.52;57.50
75063;BME280;63981;51.052;13.754;2024-01-25T01:04:25;100813.75;;;9.58;57.50
75063;BME280;63981;51.052;13.754;2024-01-25T01:05:27;100832.34;;;9.74;57.34
75063;BME280;63981;51.052;13.754;2024-01-25T01:06:28;100842.97;;;9.82;57.28
75063;BME280;63981;51.052;13.754;2024-01-25T01:07:29;100845.63;;;9.82;57.25
75063;BME280;63981;51.052;13.754;2024-01-25T01:08:31;100842.31;;;9.80;57.40
75063;BME280;63981;51.052;13.754;2024-01-25T01:09:32;100850.22;;;9.80;57.35
75063;BME280;63981;51.052;13.754;2024-01-25T01:10:33;100854.75;;;9.78;57.21
75063;BME280;63981;51.052;13.754;2024-01-25T01:11:36;100852.00;;;9.80;57.12
75063;BME280;63981;51.052;13.754;2024-01-25T01:12:37;100817.47;;;9.65;57.37
75063;BME280;63981;51.052;13.754;2024-01-25T01:13:38;100831.47;;;9.65;57.29
75063;BME280;63981;51.052;13.754;2024-01-25T01:14:39;100849.50;;;9.78;57.12
75063;BME280;63981;51.052;13.754;2024-01-25T01:15:40;100855.47;;;9.80;57.19
75063;BME280;63981;51.052;13.754;2024-01-25T01:16:41;100838.53;;;9.65;57.35
75063;BME280;63981;51.052;13.754;2024-01-25T01:17:42;100852.00;;;9.80;57.34
75063;BME280;63981;51.052;13.754;2024-01-25T01:18:44;100858.09;;;9.80;57.19
75063;BME280;63981;51.052;13.754;2024-01-25T01:19:47;100712.03;;;8.86;57.07
75063;BME280;63981;51.052;13.754;2024-01-25T01:20:48;100820.31;;;9.54;57.36
75063;BME280;63981;51.052;13.754;2024-01-25T01:21:49;100847.25;;;9.65;57.25
75063;BME280;63981;51.052;13.754;2024-01-25T01:22:51;100820.16;;;9.55;57.15
75063;BME280;63981;51.052;13.754;2024-01-25T01:23:53;100865.41;;;9.86;57.16
75063;BME280;63981;51.052;13.754;2024-01-25T01:24:54;100856.38;;;9.89;57.20
75063;BME280;63981;51.052;13.754;2024-01-25T01:25:55;100857.34;;;9.88;57.21
75063;BME280;63981;51.052;13.754;2024-01-25T01:26:56;100869.53;;;9.89;57.11
75063;BME280;63981;51.052;13.754;2024-01-25T01:27:57;100863.59;;;9.87;57.20
75063;BME280;63981;51.052;13.754;2024-01-25T01:28:58;100850.22;;;9.80;56.99
75063;BME280;63981;51.052;13.754;2024-01-25T01:29:59;100835.97;;;9.73;57.17
75063;BME280;63981;51.052;13.754;2024-01-25T01:31:00;100833.09;;;9.66;57.28
75063;BME280;63981;51.052;13.754;2024-01-25T01:32:02;100860.97;;;9.87;57.14
75063;BME280;63981;51.052;13.754;2024-01-25T01:33:03;100817.63;;;9.63;57.25
75063;BME280;63981;51.052;13.754;2024-01-25T01:34:04;100822.94;;;9.71;57.51
75063;BME280;63981;51.052;13.754;2024-01-25T01:35:06;100859.69;;;9.91;56.94
75063;BME280;63981;51.052;13.754;2024-01-25T01:36:07;100859.53;;;9.92;57.04
75063;BME280;63981;51.052;13.754;2024-01-25T01:37:08;100853.28;;;9.93;57.03
75063;BME280;63981;51.052;13.754;2024-01-25T01:38:09;100855.75;;;9.95;56.96
75063;BME280;63981;51.052;13.754;2024-01-25T01:39:10;100855.63;;;9.96;57.25
75063;BME280;63981;51.052;13.754;2024-01-25T01:40:11;100859.22;;;9.95;57.18
75063;BME280;63981;51.052;13.754;2024-01-25T01:41:13;100802.41;;;9.57;56.72
75063;BME280;63981;51.052;13.754;2024-01-25T01:42:14;100864.28;;;9.89;56.88
75063;BME280;63981;51.052;13.754;2024-01-25T01:43:19;100833.03;;;9.76;56.75
75063;BME280;63981;51.052;13.754;2024-01-25T01:44:21;100845.47;;;9.84;56.93
75063;BME280;63981;51.052;13.754;2024-01-25T01:45:22;100831.13;;;9.68;56.78
75063;BME280;63981;51.052;13.754;2024-01-25T01:46:34;100861.78;;;9.87;56.75
75063;BME280;63981;51.052;13.754;2024-01-25T01:47:43;100830.00;;;9.71;56.83
75063;BME280;63981;51.052;13.754;2024-01-25T01:48:44;100785.78;;;9.39;57.21
75063;BME280;63981;51.052;13.754;2024-01-25T01:49:46;100871.34;;;9.88;56.75
75063;BME280;63981;51.052;13.754;2024-01-25T01:50:48;100869.25;;;9.92;57.01
75063;BME280;63981;51.052;13.754;2024-01-25T01:51:49;100764.38;;;9.25;56.33
75063;BME280;63981;51.052;13.754;2024-01-25T01:52:51;100801.50;;;9.49;56.78
75063;BME280;63981;51.052;13.754;2024-01-25T01:53:53;100860.34;;;9.93;56.94
75063;BME280;63981;51.052;13.754;2024-01-25T01:54:54;100867.41;;;9.92;56.55
75063;BME280;63981;51.052;13.754;2024-01-25T01:55:57;100870.38;;;9.89;56.84
75063;BME280;63981;51.052;13.754;2024-01-25T01:56:58;100798.72;;;9.50;56.96
75063;BME280;63981;51.052;13.754;2024-01-25T01:57:59;100825.81;;;9.60;56.93
75063;BME280;63981;51.052;13.754;2024-01-25T01:59:02;100859.69;;;9.91;56.80
75063;BME280;63981;51.052;13.754;2024-01-25T02:00:07;100859.69;;;9.91;56.80
75063;BME280;63981;51.052;13.754;2024-01-25T02:01:13;100859.69;;;9.91;56.94
75063;BME280;63981;51.052;13.754;2024-01-25T02:02:14;100857.88;;;9.91;56.69
75063;BME280;63981;51.052;13.754;2024-01-25T02:03:15;100863.81;;;9.93;56.93
75063;BME280;63981;51.052;13.754;2024-01-25T02:04:16;100792.09;;;9.46;56.93
75063;BME280;63981;51.052;13.754;2024-01-25T02:05:18;100859.69;;;9.91;56.80
75063;BME280;63981;51.052;13.754;2024-01-25T02:06:19;100843.94;;;9.81;57.16
75063;BME280;63981;51.052;13.754;2024-01-25T02:07:20;100860.19;;;9.94;56.92
75063;BME280;63981;51.052;13.754;2024-01-25T02:08:22;100865.47;;;9.94;56.90
75063;BME280;63981;51.052;13.754;2024-01-25T02:09:23;100849.88;;;9.83;56.69
75063;BME280;63981;51.052;13.754;2024-01-25T02:10:24;100845.28;;;9.85;56.60
75063;BME280;63981;51.052;13.754;2024-01-25T02:11:26;100859.69;;;9.91;56.80
75063;BME280;63981;51.052;13.754;2024-01-25T02:12:27;100856.38;;;9.89;56.71
75063;BME280;63981;51.052;13.754;2024-01-25T02:13:28;100846.75;;;9.80;56.58
75063;BME280;63981;51.052;13.754;2024-01-25T02:14:30;100804.47;;;9.63;56.59
75063;BME280;63981;51.052;13.754;2024-01-25T02:15:31;100845.00;;;9.88;56.46
75063;BME280;63981;51.052;13.754;2024-01-25T02:16:32;100846.28;;;9.84;56.72
75063;BME280;63981;51.052;13.754;2024-01-25T02:17:34;100842.81;;;9.84;56.75
75063;BME280;63981;51.052;13.754;2024-01-25T02:18:35;100846.59;;;9.81;56.77
75063;BME280;63981;51.052;13.754;2024-01-25T02:19:37;100813.94;;;9.56;56.82
75063;BME280;63981;51.052;13.754;2024-01-25T02:20:38;100846.59;;;9.81;56.75
75063;BME280;63981;51.052;13.754;2024-01-25T02:21:39;100846.75;;;9.80;56.67
75063;BME280;63981;51.052;13.754;2024-01-25T02:22:40;100857.28;;;9.80;56.67
75063;BME280;63981;51.052;13.754;2024-01-25T02:23:41;100805.63;;;9.51;56.74
75063;BME280;63981;51.052;13.754;2024-01-25T02:24:42;100829.50;;;9.67;56.60
75063;BME280;63981;51.052;13.754;2024-01-25T02:25:43;100829.34;;;9.69;56.87
75063;BME280;63981;51.052;13.754;2024-01-25T02:26:45;100859.47;;;9.84;56.71
75063;BME280;63981;51.052;13.754;2024-01-25T02:27:46;100849.06;;;9.83;56.77
75063;BME280;63981;51.052;13.754;2024-01-25T02:28:48;100861.41;;;9.82;56.65
75063;BME280;63981;51.052;13.754;2024-01-25T02:29:49;100849.50;;;9.78;56.65
75063;BME280;63981;51.052;13.754;2024-01-25T02:30:50;100850.34;;;9.79;56.66
75063;BME280;63981;51.052;13.754;2024-01-25T02:31:51;100824.97;;;9.60;56.48
75063;BME280;63981;51.052;13.754;2024-01-25T02:32:52;100861.03;;;9.77;56.71
75063;BME280;63981;51.052;13.754;2024-01-25T02:33:53;100859.34;;;9.76;56.59
75063;BME280;63981;51.052;13.754;2024-01-25T02:34:54;100827.09;;;9.56;56.82
75063;BME280;63981;51.052;13.754;2024-01-25T02:35:55;100859.06;;;9.79;56.51
75063;BME280;63981;51.052;13.754;2024-01-25T02:36:56;100870.28;;;9.81;56.52
75063;BME280;63981;51.052;13.754;2024-01-25T02:37:58;100864.34;;;9.79;56.59
75063;BME280;63981;51.052;13.754;2024-01-25T02:38:59;100859.53;;;9.74;56.86
75063;BME280;63981;51.052;13.754;2024-01-25T02:40:00;100863.78;;;9.75;56.57
75063;BME280;63981;51.052;13.754;2024-01-25T02:41:01;100863.72;;;9.67;56.71
75063;BME280;63981;51.052;13.754;2024-01-25T02:42:02;100846.56;;;9.63;56.71
75063;BME280;63981;51.052;13.754;2024-01-25T02:43:03;100860.63;;;9.72;56.76
75063;BME280;63981;51.052;13.754;2024-01-25T02:44:05;100874.88;;;9.79;56.59
75063;BME280;63981;51.052;13.754;2024-01-25T02:45:06;100880.81;;;9.81;56.82
75063;BME280;63981;51.052;13.754;2024-01-25T02:46:08;100851.22;;;9.69;56.62
75063;BME280;63981;51.052;13.754;2024-01-25T02:47:09;100846.56;;;9.63;56.58
75063;BME280;63981;51.052;13.754;2024-01-25T02:48:10;100883.72;;;9.78;56.58
75063;BME280;63981;51.052;13.754;2024-01-25T02:49:11;100877.50;;;9.79;56.79
75063;BME280;63981;51.052;13.754;2024-01-25T02:50:12;100854.31;;;9.65;56.60
75063;BME280;63981;51.052;13.754;2024-01-25T02:51:13;100871.41;;;9.79;56.67
75063;BME280;63981;51.052;13.754;2024-01-25T02:52:16;100871.41;;;9.79;56.57
75063;BME280;63981;51.052;13.754;2024-01-25T02:53:19;100863.28;;;9.72;56.77
75063;BME280;63981;51.052;13.754;2024-01-25T02:54:20;100888.72;;;9.81;56.84
75063;BME280;63981;51.052;13.754;2024-01-25T02:55:22;100892.34;;;9.80;56.62
75063;BME280;63981;51.052;13.754;2024-01-25T02:56:23;100885.25;;;9.81;56.73
75063;BME280;63981;51.052;13.754;2024-01-25T02:57:25;100882.66;;;9.71;56.71
75063;BME280;63981;51.052;13.754;2024-01-25T02:58:26;100845.25;;;9.50;56.68
75063;BME280;63981;51.052;13.754;2024-01-25T02:59:27;100884.13;;;9.83;56.61
75063;BME280;63981;51.052;13.754;2024-01-25T03:00:28;100867.47;;;9.65;56.71
75063;BME280;63981;51.052;13.754;2024-01-25T03:01:38;100861.59;;;9.53;56.79
75063;BME280;63981;51.052;13.754;2024-01-25T03:02:39;100892.19;;;9.82;56.58
75063;BME280;63981;51.052;13.754;2024-01-25T03:03:40;100900.22;;;9.80;56.56
75063;BME280;63981;51.052;13.754;2024-01-25T03:04:41;100898.41;;;9.81;56.51
75063;BME280;63981;51.052;13.754;2024-01-25T03:05:42;100906.06;;;9.74;56.58
75063;BME280;63981;51.052;13.754;2024-01-25T03:06:43;100895.38;;;9.75;56.53
75063;BME280;63981;51.052;13.754;2024-01-25T03:07:44;100864.91;;;9.55;56.59
75063;BME280;63981;51.052;13.754;2024-01-25T03:08:46;100907.28;;;9.80;56.52
75063;BME280;63981;51.052;13.754;2024-01-25T03:09:47;100900.13;;;9.72;56.61
75063;BME280;63981;51.052;13.754;2024-01-25T03:10:49;100861.44;;;9.55;56.92
75063;BME280;63981;51.052;13.754;2024-01-25T03:11:50;100902.16;;;9.78;56.55
75063;BME280;63981;51.052;13.754;2024-01-25T03:12:51;100890.72;;;9.69;56.92
75063;BME280;63981;51.052;13.754;2024-01-25T03:13:52;100887.03;;;9.62;56.59
75063;BME280;63981;51.052;13.754;2024-01-25T03:14:53;100902.47;;;9.75;56.78
75063;BME280;63981;51.052;13.754;2024-01-25T03:15:55;100904.78;;;9.78;56.69
75063;BME280;63981;51.052;13.754;2024-01-25T03:16:56;100898.84;;;9.76;56.81
75063;BME280;63981;51.052;13.754;2024-01-25T03:17:57;100894.13;;;9.80;56.67
75063;BME280;63981;51.052;13.754;2024-01-25T03:18:58;100682.06;;;8.43;56.65
75063;BME280;63981;51.052;13.754;2024-01-25T03:19:59;100907.44;;;9.78;56.77
75063;BME280;63981;51.052;13.754;2024-01-25T03:21:01;100912.00;;;9.76;56.59
75063;BME280;63981;51.052;13.754;2024-01-25T03:22:02;100904.94;;;9.77;56.53
75063;BME280;63981;51.052;13.754;2024-01-25T03:23:03;100898.34;;;9.72;56.44
75063;BME280;63981;51.052;13.754;2024-01-25T03:24:05;100865.19;;;9.52;56.71
75063;BME280;63981;51.052;13.754;2024-01-25T03:25:07;100897.94;;;9.67;56.46
75063;BME280;63981;51.052;13.754;2024-01-25T03:26:09;100899.28;;;9.71;56.59
75063;BME280;63981;51.052;13.754;2024-01-25T03:27:10;100902.09;;;9.70;56.64
75063;BME280;63981;51.052;13.754;2024-01-25T03:28:14;100898.09;;;9.66;56.86
75063;BME280;63981;51.052;13.754;2024-01-25T03:29:17;100905.69;;;9.69;56.63
75063;BME280;63981;51.052;13.754;2024-01-25T03:30:18;100899.44;;;9.70;56.77
75063;BME280;63981;51.052;13.754;2024-01-25T03:31:19;100892.53;;;9.69;56.69
75063;BME280;63981;51.052;13.754;2024-01-25T03:32:20;100887.94;;;9.71;56.77
75063;BME280;63981;51.052;13.754;2024-01-25T03:33:22;100851.66;;;9.47;56.69
75063;BME280;63981;51.052;13.754;2024-01-25T03:34:23;100890.72;;;9.69;56.72
75063;BME280;63981;51.052;13.754;2024-01-25T03:35:24;100892.69;;;9.67;56.76
75063;BME280;63981;51.052;13.754;2024-01-25T03:36:25;100869.31;;;9.55;56.79
75063;BME280;63981;51.052;13.754;2024-01-25T03:37:26;100895.81;;;9.71;56.50
75063;BME280;63981;51.052;13.754;2024-01-25T03:38:27;100881.25;;;9.59;56.68
75063;BME280;63981;51.052;13.754;2024-01-25T03:39:28;100897.78;;;9.69;56.61
75063;BME280;63981;51.052;13.754;2024-01-25T03:40:30;100843.94;;;9.36;56.41
75063;BME280;63981;51.052;13.754;2024-01-25T03:41:31;100868.56;;;9.45;56.61
75063;BME280;63981;51.052;13.754;2024-01-25T03:42:32;100900.41;;;9.69;56.61
75063;BME280;63981;51.052;13.754;2024-01-25T03:43:33;100878.06;;;9.55;56.44
75063;BME280;63981;51.052;13.754;2024-01-25T03:44:34;100877.53;;;9.52;56.52
75063;BME280;63981;51.052;13.754;2024-01-25T03:45:35;100907.19;;;9.71;56.56
75063;BME280;63981;51.052;13.754;2024-01-25T03:46:36;100881.53;;;9.56;56.54
75063;BME280;63981;51.052;13.754;2024-01-25T03:47:38;100901.41;;;9.68;56.69
75063;BME280;63981;51.052;13.754;2024-01-25T03:48:39;100911.25;;;9.66;56.41
75063;BME280;63981;51.052;13.754;2024-01-25T03:49:40;100876.69;;;9.51;56.54
75063;BME280;63981;51.052;13.754;2024-01-25T03:50:41;100911.94;;;9.68;56.39
75063;BME280;63981;51.052;13.754;2024-01-25T03:51:42;100910.28;;;9.67;56.36
75063;BME280;63981;51.052;13.754;2024-01-25T03:52:43;100908.34;;;9.59;56.50
75063;BME280;63981;51.052;13.754;2024-01-25T03:53:44;100912.81;;;9.59;56.65
75063;BME280;63981;51.052;13.754;2024-01-25T03:54:46;100914.19;;;9.63;56.45
75063;BME280;63981;51.052;13.754;2024-01-25T03:55:47;100870.41;;;9.35;56.24
75063;BME280;63981;51.052;13.754;2024-01-25T03:56:49;100893.56;;;9.58;56.54
75063;BME280;63981;51.052;13.754;2024-01-25T03:57:51;100901.53;;;9.66;56.39
75063;BME280;63981;51.052;13.754;2024-01-25T03:58:52;100899.06;;;9.65;56.58
75063;BME280;63981;51.052;13.754;2024-01-25T03:59:53;100904.09;;;9.58;56.31
75063;BME280;63981;51.052;13.754;2024-01-25T04:00:55;100910.88;;;9.61;56.45
75063;BME280;63981;51.052;13.754;2024-01-25T04:01:56;100899.50;;;9.60;56.53
75063;BME280;63981;51.052;13.754;2024-01-25T04:02:57;100897.72;;;9.61;56.45
75063;BME280;63981;51.052;13.754;2024-01-25T04:03:58;100893.94;;;9.63;56.41
75063;BME280;63981;51.052;13.754;2024-01-25T04:04:59;100887.84;;;9.63;56.52
75063;BME280;63981;51.052;13.754;2024-01-25T04:06:00;100886.38;;;9.51;56.46
75063;BME280;63981;51.052;13.754;2024-01-25T04:07:02;100885.66;;;9.58;56.46
75063;BME280;63981;51.052;13.754;2024-01-25T04:08:03;100889.56;;;9.54;56.44
75063;BME280;63981;51.052;13.754;2024-01-25T04:09:05;100867.56;;;9.46;56.47
75063;BME280;63981;51.052;13.754;2024-01-25T04:10:06;100891.44;;;9.62;56.34
75063;BME280;63981;51.052;13.754;2024-01-25T04:11:07;100905.59;;;9.61;56.44
75063;BME280;63981;51.052;13.754;2024-01-25T04:12:10;100896.31;;;9.57;56.39
75063;BME280;63981;51.052;13.754;2024-01-25T04:13:11;100859.44;;;9.39;56.74
75063;BME280;63981;51.052;13.754;2024-01-25T04:14:12;100893.69;;;9.57;56.45
75063;BME280;63981;51.052;13.754;2024-01-25T04:15:14;100903.41;;;9.56;56.87
75063;BME280;63981;51.052;13.754;2024-01-25T04:16:15;100850.38;;;9.24;56.24
75063;BME280;63981;51.052;13.754;2024-01-25T04:17:16;100897.19;;;9.48;56.53
75063;BME280;63981;51.052;13.754;2024-01-25T04:18:17;100884.53;;;9.34;56.51
75063;BME280;63981;51.052;13.754;2024-01-25T04:19:18;100898.59;;;9.52;56.56
75063;BME280;63981;51.052;13.754;2024-01-25T04:20:19;100913.53;;;9.51;56.60
75063;BME280;63981;51.052;13.754;2024-01-25T04:21:21;100899.53;;;9.51;56.56
75063;BME280;63981;51.052;13.754;2024-01-25T04:22:22;100901.91;;;9.54;56.54
75063;BME280;63981;51.052;13.754;2024-01-25T04:23:23;100911.19;;;9.48;56.93
75063;BME280;63981;51.052;13.754;2024-01-25T04:24:24;100921.19;;;9.45;56.86
75063;BME280;63981;51.052;13.754;2024-01-25T04:25:25;100911.19;;;9.48;56.53
75063;BME280;63981;51.052;13.754;2024-01-25T04:26:26;100870.28;;;9.27;56.69
75063;BME280;63981;51.052;13.754;2024-01-25T04:27:27;100918.56;;;9.45;56.70
75063;BME280;63981;51.052;13.754;2024-01-25T04:28:28;100903.34;;;9.39;56.36
75063;BME280;63981;51.052;13.754;2024-01-25T04:29:30;100914.94;;;9.46;56.51
75063;BME280;63981;51.052;13.754;2024-01-25T04:30:32;100912.31;;;9.46;56.50
75063;BME280;63981;51.052;13.754;2024-01-25T04:31:33;100907.31;;;9.43;56.73
75063;BME280;63981;51.052;13.754;2024-01-25T04:32:34;100916.72;;;9.45;56.52
75063;BME280;63981;51.052;13.754;2024-01-25T04:33:35;100898.22;;;9.37;56.69
75063;BME280;63981;51.052;13.754;2024-01-25T04:34:38;100883.06;;;9.22;56.69
75063;BME280;63981;51.052;13.754;2024-01-25T04:35:39;100907.19;;;9.44;56.66
75063;BME280;63981;51.052;13.754;2024-01-25T04:36:41;100913.31;;;9.45;56.77
75063;BME280;63981;51.052;13.754;2024-01-25T04:37:42;100914.53;;;9.41;56.74
75063;BME280;63981;51.052;13.754;2024-01-25T04:38:43;100862.50;;;9.08;56.63
75063;BME280;63981;51.052;13.754;2024-01-25T04:39:44;100898.91;;;9.39;56.65
75063;BME280;63981;51.052;13.754;2024-01-25T04:40:45;100910.56;;;9.37;56.83
75063;BME280;63981;51.052;13.754;2024-01-25T04:41:47;100890.81;;;9.23;56.86
75063;BME280;63981;51.052;13.754;2024-01-25T04:42:50;100906.00;;;9.29;56.40
75063;BME280;63981;51.052;13.754;2024-01-25T04:43:51;100919.81;;;9.41;56.85
75063;BME280;63981;51.052;13.754;2024-01-25T04:44:52;100908.19;;;9.34;56.98
75063;BME280;63981;51.052;13.754;2024-01-25T04:45:54;100875.91;;;9.14;57.08
75063;BME280;63981;51.052;13.754;2024-01-25T04:46:55;100917.47;;;9.38;56.85
75063;BME280;63981;51.052;13.754;2024-01-25T04:47:57;100912.50;;;9.35;56.94
75063;BME280;63981;51.052;13.754;2024-01-25T04:48:58;100904.88;;;9.32;56.90
75063;BME280;63981;51.052;13.754;2024-01-25T04:49:59;100902.16;;;9.24;56.89
75063;BME280;63981;51.052;13.754;2024-01-25T04:51:00;100916.81;;;9.36;56.79
75063;BME280;63981;51.052;13.754;2024-01-25T04:52:01;100917.31;;;9.39;56.94
75063;BME280;63981;51.052;13.754;2024-01-25T04:53:02;100916.22;;;9.42;56.80
75063;BME280;63981;51.052;13.754;2024-01-25T04:54:03;100920.63;;;9.41;56.83
75063;BME280;63981;51.052;13.754;2024-01-25T04:55:05;100887.63;;;9.20;56.67
75063;BME280;63981;51.052;13.754;2024-01-25T04:56:06;100927.31;;;9.36;56.93
75063;BME280;63981;51.052;13.754;2024-01-25T04:57:08;100909.63;;;9.28;56.81
75063;BME280;63981;51.052;13.754;2024-01-25T04:58:09;100911.94;;;9.31;56.96
75063;BME280;63981;51.052;13.754;2024-01-25T04:59:10;100926.75;;;9.42;56.71
75063;BME280;63981;51.052;13.754;2024-01-25T05:00:11;100883.22;;;9.11;56.71
75063;BME280;63981;51.052;13.754;2024-01-25T05:01:14;100914.31;;;9.34;56.78
75063;BME280;63981;51.052;13.754;2024-01-25T05:02:15;100887.94;;;9.17;56.83
75063;BME280;63981;51.052;13.754;2024-01-25T05:03:16;100927.19;;;9.37;56.99
75063;BME280;63981;51.052;13.754;2024-01-25T05:04:17;100936.59;;;9.40;56.85
75063;BME280;63981;51.052;13.754;2024-01-25T05:05:18;100933.78;;;9.41;56.78
75063;BME280;63981;51.052;13.754;2024-01-25T05:06:19;100943.50;;;9.41;56.71
75063;BME280;63981;51.052;13.754;2024-01-25T05:07:21;100916.00;;;9.26;56.56
75063;BME280;63981;51.052;13.754;2024-01-25T05:08:22;100931.63;;;9.27;56.98
75063;BME280;63981;51.052;13.754;2024-01-25T05:09:23;100914.66;;;9.22;56.78
75063;BME280;63981;51.052;13.754;2024-01-25T05:10:25;100925.09;;;9.31;56.93
75063;BME280;63981;51.052;13.754;2024-01-25T05:11:26;100932.72;;;9.34;57.11
75063;BME280;63981;51.052;13.754;2024-01-25T05:12:27;100927.59;;;9.33;56.82
75063;BME280;63981;51.052;13.754;2024-01-25T05:13:28;100919.16;;;9.29;57.10
75063;BME280;63981;51.052;13.754;2024-01-25T05:14:29;100909.91;;;9.25;56.68
75063;BME280;63981;51.052;13.754;2024-01-25T05:15:31;100928.81;;;9.38;56.81
75063;BME280;63981;51.052;13.754;2024-01-25T05:16:32;100912.25;;;9.28;56.88
75063;BME280;63981;51.052;13.754;2024-01-25T05:17:33;100927.03;;;9.39;56.91
75063;BME280;63981;51.052;13.754;2024-01-25T05:18:34;100925.22;;;9.39;56.78
75063;BME280;63981;51.052;13.754;2024-01-25T05:19:36;100898.97;;;9.20;56.70
75063;BME280;63981;51.052;13.754;2024-01-25T05:20:37;100922.88;;;9.36;56.86
75063;BME280;63981;51.052;13.754;2024-01-25T05:21:38;100916.53;;;9.29;56.70